Wilson Creek, WA

11:10 AM PDT on September 20, 2014 (GMT -0700)
Adrian | Change Station
CLOSE
Current Station
Personal Weather Station
Location: Soap Lake, WA
Elevation: 1201 ft
Nearby Weather Stations

Elev 1201 ft 47.39 °N, 119.38 °W | Updated 4 seconds ago

Clear
Clear
77.9 °F
Feels Like 79 °F
N
4.0
Wind Variable Wind from NNW
Gusts 7.4 mph

Today
High -- | Low -- °F
--% Chance of Precip.
Yesterday
High -- | Low -- °F
Precip. -- in
6:40 AM 6:58 PM
Waning Crescent, 11% visible
Pressure 30.13 in
Visibility 10.0 miles
Clouds Clear
Heat Index 79 °F
Dew Point 50 °F
Humidity 38%
Rainfall 0.00 in
Snow Depth 2 in , 0 in , 0 in
UV 5 out of 12
Pollen 7.80 out of 12
Air Quality Not available.
Flu Activity Not available.
METAR KMWH 201752Z 03008KT 10SM CLR 26/08 A3014 RMK AO2 SLP201 T02560083 10256 20106 50000

More Conditions Fewer Conditions

Pressure 30.13 in
Visibility 10.0 miles
Clouds Clear
Heat Index 79 °F
Dew Point 50 °F
Humidity 38%
Rainfall 0.00 in
Snow Depth 2 in , 0 in , 0 in
UV 5 out of 12
Pollen 7.80 out of 12
Air Quality Not available.
Flu Activity Not available.
METAR KMWH 201752Z 03008KT 10SM CLR 26/08 A3014 RMK AO2 SLP201 T02560083 10256 20106 50000

More Conditions Fewer Conditions

10-Day Weather Forecast

Almanac

Astronomy

Sep. 20, 2014 Rise Set
Actual Time 6:40 AM PDT 6:58 PM PDT
Civil Twilight 6:09 AM PDT 7:28 PM PDT
Nautical Twilight 5:33 AM PDT 8:04 PM PDT
Astronomical Twilight 4:56 AM PDT 8:42 PM PDT
Moon 3:13 AM PDT 5:13 PM PDT
Length of Visible Light 13h 18m
Length of Day
12h 17m
Tomorrow will be 3m 24s shorter.
Waning Crescent, 11% of the Moon is Illuminated
Today
Waning Crescent
Sep 24
New
Oct 1
First Quarter
Oct 8
Full
Oct 15
Last Quarter

Today's Extremes

State Highs State Lows

Community

WunderPhotos

Upload Photos

1,754,921 photos uploaded!

WunderBlogs® & News

Nearby

Snow Depth

Station Depth Elevation
Olallie Meadows 2 in 3700 ft
Beaver Pass 0 in 3620 ft
Fish Lake 0 in 3371 ft
Stampede Pass 0 in 3860 ft
Swift Creek 0 in 3770 ft

Earthquake Activity

City Distance Mag. Time & Date
No recent earthquake activity has been reported nearby.
Minimum magnitude displayed is 2.5.

Coastal Water Temperatures

Place Temperature
No Stations Reporting

Nearby Weather Stations